KISM/ISM METAR and TAF weather

Enter ICAO airport designator
Station Type Date Time Source
KISM METAR 2022/12/05 14:56 UTC NOAA

KISM 051456Z VRB03KT 10SM CLR 22/18 A3015 RMK AO2 SLP208 6//// T02220178 51015 PNO $


Station Type Date Time Source
KISM Decoded METAR 2022/12/05 14:56 UTC NOAA

Orlando, Kissimmee Municipal Airport, FL, United States (KISM) 28-17-23N 081-26-14W
Dec 05, 2022 - 09:56 AM EST / 2022.12.05 1456 UTC
Wind: Variable at 3 MPH (3 KT):0
Visibility: 10 mile(s):0
Sky conditions: clear
Temperature: 72.0 F (22.2 C)
Dew Point: 64.0 F (17.8 C)
Relative Humidity: 76%
Pressure (altimeter): 30.15 in. Hg (1020 hPa)
Pressure tendency: 0.04 inches (1.5 hPa) higher than three hours ago
ob: KISM 051456Z VRB03KT 10SM CLR 22/18 A3015 RMK AO2 SLP208 6//// T02220178 51015 PNO
cycle: 15

Station Type Date Time Source
KISM TAF 2022/12/05 12:24 UTC NOAA

TAF KISM 051123Z 0512/0612 VRB03KT P6SM SKC
FM051400 02003KT P6SM SCT025
FM051800 02004KT P6SM SCT040
FM060000 VRB03KT P6SM SCT050
TEMPO 0610/0612 3SM BR SCT002

Example: see airport list